createdAt,value
2016-06-09T05:20:38.954Z,210
2016-06-09T05:21:31.691Z,225
2016-06-09T05:22:32.116Z,220
2016-06-09T05:24:31.653Z,195
2016-06-09T05:25:32.142Z,175
2016-06-09T05:26:32.176Z,160
2016-06-09T05:27:32.819Z,155
2016-06-09T05:28:32.212Z,175
2016-06-09T05:29:31.560Z,210
2016-06-09T05:30:32.235Z,220
2016-06-09T05:31:32.222Z,230
2016-06-09T05:32:32.881Z,250
2016-06-09T05:33:34.384Z,275
2016-06-09T05:34:32.762Z,275
2016-06-09T05:35:47.376Z,275
2016-06-09T05:36:31.784Z,275
2016-06-09T05:37:32.474Z,275
2016-06-09T05:38:32.462Z,280
2016-06-09T05:39:32.325Z,270
2016-06-09T05:40:32.047Z,275
2016-06-09T05:41:32.800Z,270
2016-06-09T05:42:46.819Z,270
2016-06-09T05:43:32.789Z,275
2016-06-09T05:44:31.840Z,265
2016-06-09T05:45:32.592Z,270
2016-06-09T05:46:32.549Z,275
2016-06-09T05:47:32.990Z,295
2016-06-09T05:48:32.446Z,300
2016-06-09T05:49:32.449Z,295
2016-06-09T05:51:32.642Z,275
2016-06-09T05:52:46.724Z,295
2016-06-09T05:53:32.430Z,315
2016-06-09T05:54:32.699Z,335
2016-06-09T05:55:32.452Z,350
2016-06-09T05:56:32.673Z,325
2016-06-09T05:57:32.490Z,335
2016-06-09T05:59:32.527Z,350
2016-06-09T06:00:32.436Z,365
2016-06-09T06:01:32.424Z,355
2016-06-09T06:03:32.571Z,245
2016-06-09T06:04:33.979Z,235
2016-06-09T06:06:46.157Z,265
2016-06-09T06:07:32.598Z,290
2016-06-09T06:08:32.648Z,305
2016-06-09T06:10:32.826Z,235
2016-06-09T06:12:33.098Z,250
2016-06-09T06:13:46.773Z,240
2016-06-09T06:14:32.510Z,230
2016-06-09T06:15:32.873Z,225
2016-06-09T06:16:32.891Z,220
2016-06-09T06:17:32.941Z,195
2016-06-09T06:18:33.117Z,205
2016-06-09T06:19:32.573Z,220
2016-06-09T06:20:33.748Z,220
2016-06-09T06:21:32.767Z,220
2016-06-09T06:22:46.660Z,225
2016-06-09T06:23:35.913Z,205
2016-06-09T06:24:33.057Z,195
2016-06-09T06:25:33.044Z,195
2016-06-09T06:26:33.500Z,210
2016-06-09T06:27:33.050Z,225
2016-06-09T06:28:35.538Z,205
2016-06-09T06:29:33.526Z,210
2016-06-09T06:30:32.559Z,225
2016-06-09T06:31:32.875Z,240
2016-06-09T06:32:32.909Z,250
2016-06-09T06:33:46.976Z,245
2016-06-09T06:34:33.165Z,240
2016-06-09T06:35:33.372Z,240
2016-06-09T06:36:46.906Z,250
2016-06-09T06:37:47.284Z,255
2016-06-09T06:38:32.944Z,260
2016-06-09T06:39:33.197Z,260
2016-06-09T06:40:47.075Z,295
2016-06-09T06:41:32.796Z,300
2016-06-09T06:42:33.299Z,310
2016-06-09T06:43:34.882Z,305
2016-06-09T06:44:33.040Z,330
2016-06-09T06:45:32.621Z,360
2016-06-09T06:46:33.108Z,345
2016-06-09T06:47:33.331Z,320
2016-06-09T06:48:33.272Z,305
2016-06-09T06:49:33.056Z,320
2016-06-09T06:50:33.340Z,325
2016-06-09T06:51:33.123Z,355
2016-06-09T06:52:33.362Z,340
2016-06-09T06:53:36.521Z,340
2016-06-09T06:54:33.321Z,380
2016-06-09T06:55:33.980Z,420
2016-06-09T06:56:33.811Z,415
2016-06-09T06:57:33.361Z,415
2016-06-09T06:58:34.678Z,420
2016-06-09T06:59:33.196Z,435
2016-06-09T07:00:33.089Z,450
2016-06-09T07:01:33.201Z,445
2016-06-09T07:02:33.471Z,405
2016-06-09T07:03:33.443Z,400
2016-06-09T07:05:33.917Z,390
2016-06-09T07:06:33.327Z,370
2016-06-09T07:08:33.770Z,325
2016-06-09T07:09:47.101Z,320
2016-06-09T07:10:33.808Z,350
2016-06-09T07:11:33.342Z,405
2016-06-09T07:12:33.595Z,455
2016-06-09T07:13:35.144Z,460
2016-06-09T07:14:33.617Z,430
2016-06-09T07:15:33.416Z,450
2016-06-09T07:16:33.467Z,510
2016-06-09T07:17:33.438Z,505
2016-06-09T07:18:33.270Z,495
2016-06-09T07:19:48.195Z,490
2016-06-09T07:20:33.713Z,475
2016-06-09T07:21:33.482Z,465
2016-06-09T07:22:33.735Z,450
2016-06-09T07:23:34.332Z,435
2016-06-09T07:24:33.382Z,430
2016-06-09T07:25:33.807Z,420
2016-06-09T07:26:33.514Z,410
2016-06-09T07:27:33.579Z,365
2016-06-09T07:28:34.019Z,345
2016-06-09T07:29:33.085Z,345
2016-06-09T07:30:33.572Z,345
2016-06-09T07:31:33.825Z,360
2016-06-09T07:32:33.625Z,385
2016-06-09T07:33:33.362Z,410
2016-06-09T07:34:33.631Z,420
2016-06-09T07:35:34.275Z,430
2016-06-09T07:36:34.090Z,430
2016-06-09T07:37:33.859Z,420
2016-06-09T07:38:33.690Z,435
2016-06-09T07:39:33.521Z,440
2016-06-09T07:40:33.962Z,450
2016-06-09T07:41:48.059Z,455
2016-06-09T07:42:33.250Z,465
2016-06-09T07:43:47.565Z,445
2016-06-09T07:44:34.553Z,425
2016-06-09T07:45:48.056Z,440
2016-06-09T07:46:33.840Z,460
2016-06-09T07:47:33.999Z,490
2016-06-09T07:48:34.221Z,525
2016-06-09T07:49:34.021Z,510
2016-06-09T07:50:33.977Z,520
2016-06-09T07:51:47.903Z,430
2016-06-09T07:52:34.343Z,370
2016-06-09T07:53:35.767Z,395
2016-06-09T07:54:34.302Z,405
2016-06-09T07:55:33.399Z,455
2016-06-09T07:56:33.902Z,450
2016-06-09T07:57:33.952Z,405
2016-06-09T07:58:34.157Z,350
2016-06-09T07:59:34.396Z,335
2016-06-09T08:00:34.164Z,330
2016-06-09T08:01:33.496Z,310
2016-06-09T08:02:33.561Z,315
2016-06-09T08:03:34.236Z,330
2016-06-09T08:04:34.239Z,345
2016-06-09T08:05:34.524Z,375
2016-06-09T08:06:34.479Z,400
2016-06-09T08:07:34.046Z,430
2016-06-09T08:08:35.939Z,460
2016-06-09T08:09:34.129Z,450
2016-06-09T08:10:34.149Z,460
2016-06-09T08:11:34.120Z,445
2016-06-09T08:12:34.544Z,405
2016-06-09T08:13:36.501Z,420
2016-06-09T08:14:34.175Z,435
2016-06-09T08:15:34.179Z,410
2016-06-09T08:17:34.201Z,375
2016-06-09T08:18:48.282Z,390
2016-06-09T08:19:34.239Z,405
2016-06-09T08:20:35.600Z,405
2016-06-09T08:21:34.151Z,400
2016-06-09T08:22:34.231Z,400
2016-06-09T08:23:34.704Z,420
2016-06-09T08:24:34.756Z,465
2016-06-09T08:25:34.379Z,515
2016-06-09T08:26:34.378Z,560
2016-06-09T08:27:34.455Z,605
2016-06-09T08:28:34.345Z,625
2016-06-09T08:29:34.561Z,650
2016-06-09T08:30:34.970Z,665
2016-06-09T08:31:34.879Z,680
2016-06-09T08:32:34.536Z,690
2016-06-09T08:33:34.869Z,680
2016-06-09T08:34:34.197Z,650
2016-06-09T08:35:36.724Z,640
2016-06-09T08:36:34.724Z,630
2016-06-09T08:37:34.795Z,635
2016-06-09T08:38:34.756Z,625
2016-06-09T08:39:48.850Z,615
2016-06-09T08:40:34.054Z,620
2016-06-09T08:41:34.840Z,605
2016-06-09T08:42:34.846Z,545
2016-06-09T08:43:35.137Z,485
2016-06-09T08:44:35.266Z,480
2016-06-09T08:45:34.938Z,505
2016-06-09T08:46:34.942Z,545
2016-06-09T08:47:49.419Z,570
2016-06-09T08:48:37.313Z,570
2016-06-09T08:49:35.016Z,575
2016-06-09T08:50:34.833Z,605
2016-06-09T08:51:34.961Z,600
2016-06-09T08:52:34.964Z,570
2016-06-09T08:53:37.769Z,585
2016-06-09T08:54:35.019Z,595
2016-06-09T08:55:35.006Z,595
2016-06-09T08:56:35.073Z,575
2016-06-09T08:57:35.278Z,550
2016-06-09T08:58:37.363Z,530
2016-06-09T08:59:35.332Z,530
2016-06-09T09:00:34.959Z,545
2016-06-09T09:01:35.352Z,555
2016-06-09T09:02:35.152Z,570
2016-06-09T09:03:35.640Z,575
2016-06-09T09:04:35.361Z,590
2016-06-09T09:05:35.350Z,610
2016-06-09T09:06:35.384Z,620
2016-06-09T09:07:35.590Z,640
2016-06-09T09:08:36.049Z,625
2016-06-09T09:09:35.237Z,625
2016-06-09T09:10:35.427Z,630
2016-06-09T09:11:35.462Z,645
2016-06-09T09:12:34.808Z,655
2016-06-09T09:13:49.237Z,675
2016-06-09T09:14:35.550Z,670
2016-06-09T09:15:34.881Z,670
2016-06-09T09:16:49.434Z,645
2016-06-09T09:17:35.402Z,625
2016-06-09T09:19:35.408Z,515
2016-06-09T09:20:36.617Z,500
2016-06-09T09:22:34.933Z,465
2016-06-09T09:23:35.467Z,440
2016-06-09T09:24:35.455Z,430
2016-06-09T09:25:36.145Z,470
2016-06-09T09:26:35.507Z,505
2016-06-09T09:27:35.901Z,545
2016-06-09T09:28:49.501Z,580
2016-06-09T09:29:49.644Z,590
2016-06-09T09:31:50.275Z,580
2016-06-09T09:32:35.775Z,585
2016-06-09T09:33:35.825Z,590
2016-06-09T09:34:36.220Z,550
2016-06-09T09:35:35.692Z,515
2016-06-09T09:36:35.867Z,505
2016-06-09T09:37:49.749Z,550
2016-06-09T09:38:35.686Z,560
2016-06-09T09:39:35.672Z,555
2016-06-09T09:40:35.957Z,530
2016-06-09T09:41:35.725Z,580
2016-06-09T09:42:35.776Z,605
2016-06-09T09:43:50.032Z,545
2016-06-09T09:44:50.254Z,535
2016-06-09T09:45:35.754Z,565
2016-06-09T09:46:35.773Z,600
2016-06-09T09:47:36.260Z,565
2016-06-09T09:48:49.891Z,520
2016-06-09T09:49:36.016Z,520
2016-06-09T09:50:36.081Z,535
2016-06-09T09:51:35.867Z,535
2016-06-09T09:52:35.885Z,535
2016-06-09T09:53:35.887Z,555
2016-06-09T09:54:36.172Z,580
2016-06-09T09:55:35.457Z,600
2016-06-09T09:56:36.194Z,610
2016-06-09T09:57:36.181Z,610
2016-06-09T09:59:35.983Z,605
2016-06-09T10:00:36.159Z,605
2016-06-09T10:01:36.272Z,620
2016-06-09T10:02:35.947Z,610
2016-06-09T10:03:35.903Z,595
2016-06-09T10:04:35.937Z,570
2016-06-09T10:05:36.909Z,575
2016-06-09T10:06:36.771Z,580
2016-06-09T10:08:49.703Z,605
2016-06-09T10:09:50.611Z,670
2016-06-09T10:10:36.392Z,550
2016-06-09T10:11:36.162Z,595
2016-06-09T10:12:35.696Z,590
2016-06-09T10:13:35.934Z,630
2016-06-09T10:14:35.937Z,615
2016-06-09T10:15:36.674Z,630
2016-06-09T10:16:36.255Z,625
2016-06-09T10:17:36.274Z,645
2016-06-09T10:18:35.996Z,1650
2016-06-09T10:19:36.483Z,1705
2016-06-09T10:20:37.080Z,1650
2016-06-09T10:21:36.599Z,1660
2016-06-09T10:22:36.554Z,1540
2016-06-09T10:23:36.590Z,1380
2016-06-09T10:24:36.046Z,1425
2016-06-09T10:25:36.298Z,1275
2016-06-09T10:26:37.066Z,705
2016-06-09T10:27:36.399Z,490
2016-06-09T10:28:36.464Z,880
2016-06-09T10:29:36.295Z,1445
2016-06-09T10:30:36.704Z,775
2016-06-09T10:31:36.693Z,750
2016-06-09T10:34:36.529Z,600
2016-06-09T10:35:36.641Z,580
2016-06-09T10:36:38.067Z,555
2016-06-09T10:37:36.835Z,565
2016-06-09T10:38:36.822Z,600
2016-06-09T10:39:36.466Z,605
2016-06-09T10:40:36.454Z,545
2016-06-09T10:41:50.726Z,575
2016-06-09T10:42:36.679Z,575
2016-06-09T10:43:36.276Z,570
2016-06-09T10:44:37.154Z,500
2016-06-09T10:45:37.000Z,450
2016-06-09T10:46:50.866Z,450
2016-06-09T10:47:36.772Z,490
2016-06-09T10:48:36.978Z,520
2016-06-09T10:49:36.529Z,550
2016-06-09T10:50:36.719Z,600
2016-06-09T10:51:36.285Z,570
2016-06-09T10:52:36.851Z,555
2016-06-09T10:53:37.260Z,555
2016-06-09T10:54:36.872Z,570
2016-06-09T10:56:36.894Z,620
2016-06-09T10:57:36.912Z,645
2016-06-09T10:58:36.915Z,645
2016-06-09T10:59:36.934Z,535
2016-06-09T11:00:36.969Z,485
2016-06-09T11:01:37.034Z,500
2016-06-09T11:02:37.022Z,535
2016-06-09T11:03:36.524Z,475
2016-06-09T11:04:37.638Z,480
2016-06-09T11:05:37.875Z,460
2016-06-09T11:06:37.721Z,460
2016-06-09T11:07:37.068Z,465
2016-06-09T11:08:51.403Z,470
2016-06-09T11:09:36.637Z,485
2016-06-09T11:10:36.999Z,495
2016-06-09T11:11:37.205Z,510
2016-06-09T11:12:37.271Z,525
2016-06-09T11:13:37.227Z,565
2016-06-09T11:14:37.199Z,575
2016-06-09T11:15:37.124Z,610
2016-06-09T11:16:37.220Z,640
2016-06-09T11:17:37.255Z,655
2016-06-09T11:18:37.695Z,600
2016-06-09T11:19:37.293Z,510
2016-06-09T11:20:37.561Z,530
2016-06-09T11:21:37.721Z,530
2016-06-09T11:22:51.414Z,440
2016-06-09T11:23:37.524Z,460
2016-06-09T11:24:37.355Z,495
2016-06-09T11:25:37.358Z,505
2016-06-09T11:26:37.455Z,500
2016-06-09T11:28:37.618Z,480
2016-06-09T11:29:37.417Z,470
2016-06-09T11:30:38.171Z,475
2016-06-09T11:31:37.657Z,480
2016-06-09T11:32:37.707Z,515
2016-06-09T11:33:37.742Z,515
2016-06-09T11:34:37.542Z,555
2016-06-09T11:35:37.607Z,615
2016-06-09T11:37:38.160Z,575
2016-06-09T11:38:36.945Z,535
2016-06-09T11:39:37.588Z,550
2016-06-09T11:40:37.794Z,550
2016-06-09T11:41:37.908Z,545
2016-06-09T11:42:37.144Z,540
2016-06-09T11:43:37.648Z,530
2016-06-09T11:44:37.682Z,535
2016-06-09T11:45:37.685Z,520
2016-06-09T11:46:37.720Z,530
2016-06-09T11:47:38.473Z,550
2016-06-09T11:48:37.757Z,585
2016-06-09T11:49:37.931Z,620
2016-06-09T11:50:37.794Z,615
2016-06-09T11:51:38.391Z,590
2016-06-09T11:52:37.691Z,595
2016-06-09T11:53:37.850Z,590
2016-06-09T11:54:37.854Z,565
2016-06-09T11:55:38.075Z,545
2016-06-09T11:56:38.344Z,530
2016-06-09T11:58:37.569Z,525
2016-06-09T11:59:38.291Z,535
2016-06-09T12:00:37.668Z,530
2016-06-09T12:01:37.453Z,525
2016-06-09T12:02:37.941Z,505
2016-06-09T12:03:38.225Z,530
2016-06-09T12:04:38.212Z,520
2016-06-09T12:05:51.765Z,490
2016-06-09T12:06:39.234Z,485
2016-06-09T12:07:38.049Z,510
2016-06-09T12:08:38.474Z,470
2016-06-09T12:09:38.071Z,460
2016-06-09T12:10:38.277Z,445
2016-06-09T12:11:38.125Z,440
2016-06-09T12:13:38.161Z,430
2016-06-09T12:14:38.023Z,430
2016-06-09T12:15:38.168Z,435
2016-06-09T12:16:39.030Z,435
2016-06-09T12:17:52.365Z,435
2016-06-09T12:18:38.458Z,435
2016-06-09T12:19:52.324Z,440
2016-06-09T12:20:38.277Z,455
2016-06-09T12:21:39.374Z,465
2016-06-09T12:22:38.298Z,485
2016-06-09T12:23:38.833Z,485
2016-06-09T12:24:38.399Z,500
2016-06-09T12:25:38.557Z,495
2016-06-09T12:26:38.358Z,490
2016-06-09T12:27:52.457Z,475
2016-06-09T12:28:38.270Z,465
2016-06-09T12:29:38.305Z,460
2016-06-09T12:30:38.152Z,455
2016-06-09T12:31:38.420Z,460
2016-06-09T12:32:38.454Z,475
2016-06-09T12:33:38.473Z,480
2016-06-09T12:34:38.726Z,465
2016-06-09T12:35:53.124Z,400
2016-06-09T12:36:39.061Z,385
2016-06-09T12:37:38.752Z,395
2016-06-09T12:38:38.614Z,390
2016-06-09T12:39:38.647Z,345
2016-06-09T12:40:38.603Z,370
2016-06-09T12:41:38.623Z,340
2016-06-09T12:42:38.626Z,360
2016-06-09T12:43:38.879Z,360
2016-06-09T12:44:38.929Z,345
2016-06-09T12:45:38.182Z,355
2016-06-09T12:46:38.451Z,355
2016-06-09T12:47:38.938Z,355
2016-06-09T12:48:52.600Z,360
2016-06-09T12:49:38.960Z,360
2016-06-09T12:50:38.682Z,360
2016-06-09T12:51:40.232Z,365
2016-06-09T12:52:53.081Z,370
2016-06-09T12:53:39.237Z,380
2016-06-09T12:54:38.834Z,390
2016-06-09T12:55:38.885Z,420
2016-06-09T12:56:38.902Z,435
2016-06-09T12:57:39.078Z,420
2016-06-09T12:58:39.066Z,400
2016-06-09T12:59:38.991Z,380
2016-06-09T13:00:39.119Z,365
2016-06-09T13:01:39.153Z,370
2016-06-09T13:02:39.156Z,365
2016-06-09T13:03:38.971Z,365
2016-06-09T13:04:53.056Z,360
2016-06-09T13:05:39.025Z,355
2016-06-09T13:06:39.903Z,355
2016-06-09T13:07:39.250Z,350
2016-06-09T13:08:39.050Z,350
2016-06-09T13:09:39.271Z,350
2016-06-09T13:10:39.103Z,355
2016-06-09T13:11:38.965Z,335
2016-06-09T13:12:39.187Z,360
2016-06-09T13:13:39.424Z,355
2016-06-09T13:14:39.615Z,360
2016-06-09T13:15:38.994Z,365
2016-06-09T13:16:39.621Z,365
2016-06-09T13:17:39.421Z,370
2016-06-09T13:18:39.221Z,365
2016-06-09T13:19:39.443Z,370
2016-06-09T13:20:39.227Z,360
2016-06-09T13:21:39.839Z,370
2016-06-09T13:22:39.312Z,375
2016-06-09T13:23:39.517Z,370
2016-06-09T13:24:38.551Z,365
2016-06-09T13:25:39.821Z,300
2016-06-09T13:26:39.417Z,345
2016-06-09T13:27:39.623Z,340
2016-06-09T13:28:39.814Z,335
2016-06-09T13:29:39.474Z,330
2016-06-09T13:30:39.165Z,330
2016-06-09T13:31:53.513Z,345
2016-06-09T13:32:39.435Z,355
2016-06-09T13:33:53.536Z,370
2016-06-09T13:34:39.677Z,390
2016-06-09T13:35:39.508Z,385
2016-06-09T13:36:40.183Z,415
2016-06-09T13:37:39.529Z,420
2016-06-09T13:38:39.548Z,430
2016-06-09T13:39:54.148Z,410
2016-06-09T13:40:39.585Z,320
2016-06-09T13:41:53.669Z,300
2016-06-09T13:42:54.094Z,295
2016-06-09T13:43:39.344Z,290
2016-06-09T13:44:39.863Z,310
2016-06-09T13:46:39.682Z,380
2016-06-09T13:47:39.592Z,340
2016-06-09T13:48:39.985Z,340
2016-06-09T13:49:39.926Z,385
2016-06-09T13:50:39.803Z,345
2016-06-09T13:51:41.056Z,395
2016-06-09T13:52:39.779Z,355
2016-06-09T13:54:40.035Z,395
2016-06-09T13:55:39.803Z,320
2016-06-09T13:56:54.404Z,285
2016-06-09T13:57:39.341Z,285
2016-06-09T13:58:39.860Z,300
2016-06-09T13:59:39.863Z,325
2016-06-09T14:00:39.757Z,375
2016-06-09T14:01:40.399Z,340
2016-06-09T14:02:54.030Z,315
2016-06-09T14:03:40.140Z,315
2016-06-09T14:04:39.972Z,315
2016-06-09T14:05:40.209Z,315
2016-06-09T14:06:40.212Z,315
2016-06-09T14:07:54.124Z,310
2016-06-09T14:08:40.234Z,315
2016-06-09T14:09:39.284Z,310
2016-06-09T14:10:40.100Z,380
2016-06-09T14:11:40.775Z,320
2016-06-09T14:12:40.371Z,290
2016-06-09T14:13:40.093Z,275
2016-06-09T14:14:40.315Z,255
2016-06-09T14:15:54.634Z,245
2016-06-09T14:16:40.399Z,260
2016-06-09T14:17:40.559Z,280
2016-06-09T14:18:40.296Z,420
2016-06-09T14:19:40.408Z,450
2016-06-09T14:20:40.443Z,415
2016-06-09T14:21:42.118Z,335
2016-06-09T14:23:40.280Z,380
2016-06-09T14:24:54.755Z,445
2016-06-09T14:25:40.583Z,500
2016-06-09T14:26:40.539Z,485
2016-06-09T14:27:39.824Z,465
2016-06-09T14:28:40.343Z,455
2016-06-09T14:29:40.439Z,440
2016-06-09T14:30:41.005Z,435
2016-06-09T14:31:40.570Z,420
2016-06-09T14:32:40.636Z,415
2016-06-09T14:33:40.264Z,365
2016-06-09T14:34:40.454Z,380
2016-06-09T14:35:40.442Z,390
2016-06-09T14:36:55.276Z,390
2016-06-09T14:37:42.104Z,385
2016-06-09T14:38:54.407Z,385
2016-06-09T14:39:41.735Z,385
2016-06-09T14:40:40.583Z,385
2016-06-09T14:41:40.758Z,380
2016-06-09T14:42:40.573Z,380
2016-06-09T14:43:40.997Z,385
2016-06-09T14:44:40.688Z,400
2016-06-09T14:45:40.895Z,415
2016-06-09T14:46:40.882Z,450
2016-06-09T14:47:41.057Z,450
2016-06-09T14:49:40.376Z,435
2016-06-09T14:50:54.835Z,445
2016-06-09T14:51:41.069Z,430
2016-06-09T14:52:40.104Z,460
2016-06-09T14:53:41.122Z,480
2016-06-09T14:54:41.344Z,480
2016-06-09T14:55:40.972Z,530
2016-06-09T14:56:54.869Z,580
2016-06-09T14:57:40.869Z,670
2016-06-09T14:58:41.013Z,745
2016-06-09T15:00:41.128Z,690
2016-06-09T15:01:41.209Z,735
2016-06-09T15:02:40.978Z,730
2016-06-09T15:03:55.000Z,745
2016-06-09T15:04:40.921Z,720
2016-06-09T15:05:41.347Z,680
2016-06-09T15:06:41.396Z,630
2016-06-09T15:07:41.010Z,590
2016-06-09T15:08:40.527Z,545
2016-06-09T15:09:40.594Z,515
2016-06-09T15:10:41.097Z,575
2016-06-09T15:11:41.053Z,565
2016-06-09T15:12:41.665Z,540
2016-06-09T15:13:41.106Z,490
2016-06-09T15:14:41.140Z,500
2016-06-09T15:15:41.330Z,515
2016-06-09T15:16:41.163Z,505
2016-06-09T15:17:41.212Z,475
2016-06-09T15:18:41.168Z,475
2016-06-09T15:19:41.249Z,430
2016-06-09T15:20:41.267Z,425
2016-06-09T15:21:41.098Z,415
2016-06-09T15:22:41.634Z,420
2016-06-09T15:23:40.746Z,420
2016-06-09T15:24:41.265Z,415
2016-06-09T15:25:41.314Z,420
2016-06-09T15:26:41.755Z,435
2016-06-09T15:27:41.539Z,445
2016-06-09T15:28:41.324Z,415
2016-06-09T15:29:41.733Z,410
2016-06-09T15:30:41.392Z,410
2016-06-09T15:31:41.068Z,445
2016-06-09T15:32:41.836Z,430
2016-06-09T15:33:41.418Z,450
2016-06-09T15:34:41.670Z,415
2016-06-09T15:35:41.345Z,410
2016-06-09T15:36:41.269Z,400
2016-06-09T15:37:42.305Z,395
2016-06-09T15:38:41.745Z,425
2016-06-09T15:39:41.951Z,430
2016-06-09T15:40:41.423Z,430
2016-06-09T15:41:41.520Z,440
2016-06-09T15:42:41.554Z,435
2016-06-09T15:43:41.573Z,430
2016-06-09T15:44:41.810Z,415
2016-06-09T15:45:41.626Z,410
2016-06-09T15:46:41.880Z,405
2016-06-09T15:47:42.336Z,415
2016-06-09T15:48:41.869Z,410
2016-06-09T15:49:41.559Z,390
2016-06-09T15:50:41.704Z,355
2016-06-09T15:51:41.706Z,340
2016-06-09T15:52:41.741Z,325
2016-06-09T15:53:42.182Z,315
2016-06-09T15:54:41.779Z,305
2016-06-09T15:55:41.797Z,315
2016-06-09T15:56:56.084Z,335
2016-06-09T15:57:42.100Z,350
2016-06-09T15:58:41.837Z,350
2016-06-09T15:59:42.012Z,340
2016-06-09T16:00:41.376Z,315
2016-06-09T16:01:41.894Z,315
2016-06-09T16:02:41.741Z,315
2016-06-09T16:03:41.899Z,350
2016-06-09T16:04:42.747Z,365
2016-06-09T16:05:41.921Z,370
2016-06-09T16:06:41.534Z,380
2016-06-09T16:07:42.428Z,370
2016-06-09T16:08:42.040Z,360
2016-06-09T16:09:55.578Z,350
2016-06-09T16:10:42.031Z,350
2016-06-09T16:11:42.877Z,350
2016-06-09T16:12:44.646Z,345
2016-06-09T16:13:42.088Z,335
2016-06-09T16:14:42.527Z,320
2016-06-09T16:15:42.094Z,300
2016-06-09T16:16:56.411Z,280
2016-06-09T16:18:42.165Z,240
2016-06-09T16:19:42.245Z,240
2016-06-09T16:20:42.452Z,250
2016-06-09T16:21:56.505Z,245
2016-06-09T16:22:42.615Z,240
2016-06-09T16:23:56.324Z,235
2016-06-09T16:24:42.433Z,230
2016-06-09T16:25:42.686Z,230
2016-06-09T16:26:42.720Z,220
2016-06-09T16:27:56.586Z,225
2016-06-09T16:28:42.601Z,230
2016-06-09T16:29:42.308Z,250
2016-06-09T16:30:43.046Z,260
2016-06-09T16:31:42.221Z,270
2016-06-09T16:32:42.817Z,265
2016-06-09T16:33:42.461Z,285
2016-06-09T16:34:57.092Z,290
2016-06-09T16:35:42.280Z,285
2016-06-09T16:36:42.876Z,270
2016-06-09T16:37:42.582Z,255
2016-06-09T16:38:42.648Z,240
2016-06-09T16:39:42.699Z,220
2016-06-09T16:40:42.513Z,210
2016-06-09T16:41:42.704Z,200
2016-06-09T16:42:42.708Z,190
2016-06-09T16:43:42.508Z,185
2016-06-09T16:44:42.322Z,185
2016-06-09T16:45:42.544Z,185
2016-06-09T16:46:42.564Z,185
2016-06-09T16:47:42.785Z,190
2016-06-09T16:48:57.088Z,195
2016-06-09T16:49:42.807Z,195
2016-06-09T16:50:42.841Z,200
2016-06-09T16:51:42.641Z,195
2016-06-09T16:52:43.082Z,195
2016-06-09T16:53:42.711Z,190
2016-06-09T16:54:42.259Z,185
2016-06-09T16:55:42.732Z,180
2016-06-09T16:56:42.703Z,180
2016-06-09T16:57:43.379Z,185
2016-06-09T16:58:42.835Z,205
2016-06-09T17:00:56.875Z,240
2016-06-09T17:01:57.081Z,240
2016-06-09T17:02:42.847Z,230
2016-06-09T17:03:42.819Z,230
2016-06-09T17:04:43.494Z,235
2016-06-09T17:05:56.921Z,235
2016-06-09T17:06:42.875Z,240
2016-06-09T17:07:43.957Z,235
2016-06-09T17:08:42.412Z,235
2016-06-09T17:09:42.900Z,230
2016-06-09T17:10:42.919Z,220
2016-06-09T17:11:57.190Z,200
2016-06-09T17:12:43.175Z,185
2016-06-09T17:13:57.040Z,175
2016-06-09T17:15:43.028Z,175
2016-06-09T17:16:43.437Z,185
2016-06-09T17:17:43.284Z,205
2016-06-09T17:18:43.459Z,230
2016-06-09T17:19:43.712Z,260
2016-06-09T17:20:43.683Z,275
2016-06-09T17:21:57.425Z,275
2016-06-09T17:22:43.581Z,270
2016-06-09T17:23:44.489Z,235
2016-06-09T17:24:43.134Z,215
2016-06-09T17:25:43.698Z,200
2016-06-09T17:26:43.358Z,200
2016-06-09T17:27:43.360Z,200
2016-06-09T17:28:43.177Z,195
2016-06-09T17:29:43.274Z,185
2016-06-09T17:30:43.870Z,175
2016-06-09T17:31:43.197Z,170
2016-06-09T17:32:43.726Z,165
2016-06-09T17:33:43.537Z,160
2016-06-09T17:34:44.098Z,160
2016-06-09T17:35:43.486Z,155
2016-06-09T17:36:43.820Z,150
2016-06-09T17:37:57.498Z,155
2016-06-09T17:38:43.279Z,150
2016-06-09T17:39:43.438Z,155
2016-06-09T17:40:43.628Z,150
2016-06-09T17:41:43.846Z,155
2016-06-09T17:42:43.713Z,165
2016-06-09T17:43:43.223Z,180
2016-06-09T17:44:43.731Z,190
2016-06-09T17:45:43.943Z,200
2016-06-09T17:46:44.325Z,195
2016-06-09T17:47:43.768Z,190
2016-06-09T17:48:43.976Z,190
2016-06-09T17:49:43.981Z,180
2016-06-09T17:50:43.814Z,175
2016-06-09T17:51:43.850Z,170
2016-06-09T17:52:45.025Z,160
2016-06-09T17:53:44.374Z,150
2016-06-09T17:54:44.299Z,150
2016-06-09T17:55:43.881Z,135
2016-06-09T17:56:58.607Z,125
2016-06-09T17:57:43.872Z,125
2016-06-09T17:58:44.001Z,120
2016-06-09T17:59:43.926Z,120
2016-06-09T18:00:44.024Z,115
2016-06-09T18:01:44.339Z,115
2016-06-09T18:02:43.998Z,115
2016-06-09T18:03:44.486Z,110
2016-06-09T18:04:44.051Z,110
2016-06-09T18:05:44.023Z,110
2016-06-09T18:06:44.011Z,105
2016-06-09T18:07:44.733Z,100
2016-06-09T18:08:45.235Z,95
2016-06-09T18:09:44.270Z,90
2016-06-09T18:10:44.054Z,85
2016-06-09T18:11:44.730Z,85
2016-06-09T18:12:58.204Z,80
2016-06-09T18:13:43.829Z,80
2016-06-09T18:14:44.161Z,75
2016-06-09T18:15:58.635Z,75
2016-06-09T18:16:44.307Z,75
2016-06-09T18:17:44.279Z,75
